Albuquerque, NM

3:07 AM MDT on September 30, 2016 (GMT -0600)
Spain and Moon | | Change Station

Elev 5519 ft 35.14 °N, 106.54 °W | Updated 2 minutes ago

Overcast
Overcast
57.2 °F
Feels Like 57.2 °F
N
0.0
Wind Variable Wind from SE
Gusts 10.0 mph

Today
High -- | Low -- °F
--% Chance of Precip.
Yesterday
High -- | Low -- °F
Precip. -- in
Pressure 30.18 in
Visibility 10.0 miles
Clouds Few 1100 ft
Scattered Clouds 3400 ft
Overcast 10000 ft
Dew Point 53 °F
Humidity 85%
Rainfall 0.00 in
Snow Depth Not available.
7:00 AM 6:50 PM
Waning Crescent, 0% visible
METAR KABQ 300852Z 14011KT 10SM FEW011 SCT034 OVC100 14/13 A3039 RMK AO2 RAE24 SLP220 MTNS OBSC NE-SE P0001 60001 T01440133 58008 $
Pressure 30.18 in
Visibility 10.0 miles
Clouds Few 1100 ft
Scattered Clouds 3400 ft
Overcast 10000 ft
Dew Point 53 °F
Humidity 85%
Rainfall 0.00 in
Snow Depth Not available.
7:00 AM 6:50 PM
Waning Crescent, 0% visible
METAR KABQ 300852Z 14011KT 10SM FEW011 SCT034 OVC100 14/13 A3039 RMK AO2 RAE24 SLP220 MTNS OBSC NE-SE P0001 60001 T01440133 58008 $

10-Day Weather Forecast

Almanac

Astronomy

Sep. 30, 2016 Rise Set
Actual Time
Civil Twilight
Nautical Twilight
Astronomical Twilight
Moon
Length of Visible Light
Length of Day
Tomorrow will be .
, % of the Moon is Illuminated

Today's Extremes

State Highs State Lows

Community

WunderPhotos

Upload Photos

1,942,668 photos uploaded!

WunderBlog® & News

Nearby

Air Quality

  Air Quality AQ Index Pollutant
Not available.

Snow Depth

Station Depth Elevation

Earthquake Activity

City Distance Mag. Time & Date
Minimum magnitude displayed is 2.5.

Coastal Water Temperatures

Place Temperature

Stations

Nearby Weather Stations

Station Location Temp. Windchill Dew Point Humidity Wind Precip. Elev Updated Type
                   

Watches & Warnings

There are currently no watches in effect.